Time;durP1;ratioP1;P1;durP2;ratioP2;P2;SDS_P1;SDS_P2;PMS_P1;PMS_P2;Temp;Humidity;BMP_temperature;BMP_pressure;BME280_temperature;BME280_humidity;BME280_pressure;Samples;Min_cycle;Max_cycle;Signal;HPM_P1;HPM_P2
2023/01/15 00:02:05;;;;;;;18.10;2.90;;;;;;;;;;5087186;28;20518;-76
2023/01/15 00:04:32;;;;;;;11.40;2.22;;;;;;;;;;5095516;28;20422;-75
2023/01/15 00:06:58;;;;;;;11.98;2.75;;;;;;;;;;5090019;28;20417;-76
2023/01/15 00:09:24;;;;;;;13.27;2.40;;;;;;;;;;5081577;28;20469;-76
2023/01/15 00:11:50;;;;;;;10.45;2.22;;;;;;;;;;5088492;28;20417;-76
2023/01/15 00:14:16;;;;;;;13.40;2.70;;;;;;;;;;5087070;28;20974;-76
2023/01/15 00:16:44;;;;;;;11.70;2.28;;;;;;;;;;5080749;28;20421;-76
2023/01/15 00:19:11;;;;;;;11.93;2.30;;;;;;;;;;5090722;28;20436;-77
2023/01/15 00:21:37;;;;;;;15.38;2.63;;;;;;;;;;5072578;28;20418;-77
2023/01/15 00:29:33;;;;;;;14.48;2.28;;;;;;;;;;5076251;28;20418;-76
2023/01/15 00:32:01;;;;;;;12.27;2.40;;;;;;;;;;5090081;28;20422;-76
2023/01/15 00:34:28;;;;;;;13.25;2.60;;;;;;;;;;5085299;28;20490;-77
2023/01/15 00:36:54;;;;;;;11.77;2.38;;;;;;;;;;5070714;28;20511;-77
2023/01/15 00:39:24;;;;;;;11.27;2.40;;;;;;;;;;5086106;28;20423;-77
2023/01/15 00:41:50;;;;;;;14.43;2.60;;;;;;;;;;5061353;28;20424;-77
2023/01/15 00:44:17;;;;;;;11.50;2.60;;;;;;;;;;5092433;28;20980;-76
2023/01/15 00:46:47;;;;;;;10.23;2.33;;;;;;;;;;5078303;28;20441;-77
2023/01/15 00:49:14;;;;;;;10.02;2.30;;;;;;;;;;5105909;28;20410;-77
2023/01/15 00:51:42;;;;;;;10.52;2.22;;;;;;;;;;5070432;28;20501;-77
2023/01/15 00:54:09;;;;;;;16.65;2.88;;;;;;;;;;5073783;28;20408;-77
2023/01/15 00:56:35;;;;;;;13.02;2.25;;;;;;;;;;5070858;28;20435;-77
2023/01/15 00:59:10;;;;;;;11.05;2.45;;;;;;;;;;5091713;28;20450;-77
2023/01/15 01:01:36;;;;;;;13.23;2.85;;;;;;;;;;5090287;28;20418;-77
2023/01/15 01:04:03;;;;;;;12.27;2.30;;;;;;;;;;5087986;28;20425;-77
2023/01/15 01:06:29;;;;;;;14.80;2.28;;;;;;;;;;5073147;28;20427;-77
2023/01/15 01:08:55;;;;;;;13.20;2.63;;;;;;;;;;5070927;28;20395;-77
2023/01/15 01:11:25;;;;;;;13.45;2.65;;;;;;;;;;5085429;28;20417;-77
2023/01/15 01:13:51;;;;;;;14.65;2.88;;;;;;;;;;5072160;28;20417;-76
2023/01/15 01:16:25;;;;;;;11.68;1.98;;;;;;;;;;5073164;28;20413;-76
2023/01/15 01:18:51;;;;;;;11.60;2.60;;;;;;;;;;5073194;28;20429;-77
2023/01/15 01:21:18;;;;;;;9.52;2.00;;;;;;;;;;5089763;28;20410;-76
2023/01/15 01:23:44;;;;;;;12.95;2.42;;;;;;;;;;5070263;28;20424;-77
2023/01/15 01:26:12;;;;;;;11.88;2.47;;;;;;;;;;5079641;28;20412;-77
2023/01/15 01:28:39;;;;;;;15.50;2.30;;;;;;;;;;5118517;27;20418;-77
2023/01/15 01:31:06;;;;;;;14.63;2.38;;;;;;;;;;5086985;28;20422;-77
2023/01/15 01:33:32;;;;;;;12.70;2.15;;;;;;;;;;5105800;28;20433;-77
2023/01/15 01:35:58;;;;;;;12.73;2.88;;;;;;;;;;5088238;28;20421;-77
2023/01/15 01:38:24;;;;;;;9.95;2.35;;;;;;;;;;5073467;28;20520;-77
2023/01/15 01:40:51;;;;;;;11.23;2.45;;;;;;;;;;5082905;28;20956;-76
2023/01/15 01:43:21;;;;;;;11.80;2.63;;;;;;;;;;5089423;28;20581;-77
2023/01/15 01:45:47;;;;;;;15.05;2.60;;;;;;;;;;5072132;28;20414;-77
2023/01/15 01:48:14;;;;;;;11.85;2.53;;;;;;;;;;5089962;28;20422;-77
2023/01/15 01:50:41;;;;;;;13.50;2.50;;;;;;;;;;5081335;28;20770;-77
2023/01/15 01:53:10;;;;;;;15.73;2.87;;;;;;;;;;5087166;28;20419;-76
2023/01/15 01:55:37;;;;;;;15.32;2.35;;;;;;;;;;5110507;27;20820;-77
2023/01/15 01:58:05;;;;;;;12.65;2.67;;;;;;;;;;5088430;28;20429;-77
2023/01/15 02:00:32;;;;;;;14.88;2.55;;;;;;;;;;5089663;28;20433;-77
2023/01/15 02:02:59;;;;;;;11.60;2.50;;;;;;;;;;5072158;28;20426;-77
2023/01/15 02:05:29;;;;;;;13.65;2.40;;;;;;;;;;5088764;28;20414;-77
2023/01/15 02:07:57;;;;;;;13.15;2.53;;;;;;;;;;5090080;28;20422;-80
2023/01/15 02:10:27;;;;;;;12.48;2.30;;;;;;;;;;5092534;28;20412;-79
2023/01/15 02:13:00;;;;;;;12.05;2.28;;;;;;;;;;5092297;28;20422;-79
2023/01/15 02:15:31;;;;;;;14.02;2.45;;;;;;;;;;5093188;28;20417;-80
2023/01/15 02:18:16;;;;;;;13.32;2.38;;;;;;;;;;5074974;28;20420;-79
2023/01/15 02:20:46;;;;;;;12.45;2.38;;;;;;;;;;5078925;28;20767;-79
2023/01/15 02:23:26;;;;;;;13.38;2.75;;;;;;;;;;5073126;28;20424;-80
2023/01/15 02:26:04;;;;;;;13.30;2.60;;;;;;;;;;5075570;28;20483;-78
2023/01/15 02:28:36;;;;;;;15.73;2.70;;;;;;;;;;5091662;28;20435;-79
2023/01/15 02:31:10;;;;;;;15.15;2.85;;;;;;;;;;5062683;28;20451;-79
2023/01/15 02:33:41;;;;;;;11.40;2.00;;;;;;;;;;5091150;28;20464;-80
2023/01/15 02:36:08;;;;;;;14.02;2.47;;;;;;;;;;5091837;28;20451;-80
2023/01/15 02:38:37;;;;;;;14.07;2.40;;;;;;;;;;5094214;28;20437;-80
2023/01/15 02:41:15;;;;;;;12.85;2.58;;;;;;;;;;5089795;28;20942;-79
2023/01/15 02:43:43;;;;;;;10.77;2.22;;;;;;;;;;5091418;28;20459;-80
2023/01/15 02:46:10;;;;;;;13.13;2.60;;;;;;;;;;5091452;28;20772;-79
2023/01/15 02:48:38;;;;;;;14.47;2.93;;;;;;;;;;5078651;28;20461;-79
2023/01/15 02:51:11;;;;;;;14.73;2.85;;;;;;;;;;5077275;28;20425;-80
2023/01/15 02:53:38;;;;;;;13.00;2.83;;;;;;;;;;5075623;28;20421;-80
2023/01/15 02:56:09;;;;;;;12.30;2.60;;;;;;;;;;5096722;28;20410;-80
2023/01/15 02:58:37;;;;;;;15.52;2.83;;;;;;;;;;5079817;28;20428;-80
2023/01/15 03:01:07;;;;;;;13.65;2.42;;;;;;;;;;5094740;28;20390;-80
2023/01/15 03:03:42;;;;;;;15.73;2.60;;;;;;;;;;5121788;27;20921;-79
2023/01/15 03:06:21;;;;;;;11.60;2.70;;;;;;;;;;5093480;28;20459;-79
2023/01/15 03:08:47;;;;;;;12.30;2.88;;;;;;;;;;5077306;28;20414;-80
2023/01/15 03:11:15;;;;;;;14.38;2.65;;;;;;;;;;5091364;28;20418;-80
2023/01/15 03:13:41;;;;;;;14.30;2.60;;;;;;;;;;5096892;28;20491;-80
2023/01/15 03:16:37;;;;;;;11.23;2.40;;;6.50;99.90;;;;;;5078658;28;20772;-80
2023/01/15 03:19:07;;;;;;;16.00;2.90;;;;;;;;;;5041802;28;20973;-80
2023/01/15 03:21:39;;;;;;;16.23;2.60;;;;;;;;;;5090079;28;20403;-80
2023/01/15 03:24:06;;;;;;;12.70;3.00;;;;;;;;;;5089010;28;20425;-79
2023/01/15 03:26:32;;;;;;;15.60;2.80;;;;;;;;;;5091461;28;20913;-80
2023/01/15 03:28:58;;;;;;;11.10;2.42;;;;;;;;;;5091588;28;20860;-80
2023/01/15 03:31:25;;;;;;;17.40;2.60;;;;;;;;;;5083122;28;20426;-80
2023/01/15 03:33:51;;;;;;;14.48;2.60;;;;;;;;;;5098539;28;20431;-80
2023/01/15 03:36:17;;;;;;;10.73;2.67;;;;;;;;;;5103122;28;20799;-80
2023/01/15 03:38:46;;;;;;;13.70;2.87;;;;;;;;;;5074452;28;20524;-80
2023/01/15 03:41:18;;;;;;;12.95;2.50;;;;;;;;;;5093075;28;20405;-80
2023/01/15 03:43:50;;;;;;;13.38;2.75;;;;;;;;;;5077708;28;20421;-79
2023/01/15 03:46:49;;;;;;;9.63;2.55;;;;;;;;;;5080241;28;20447;-80
2023/01/15 03:49:24;;;;;;;15.90;2.58;;;;;;;;;;5076909;28;20423;-80
2023/01/15 03:52:02;;;;;;;11.27;2.40;;;;;;;;;;5088437;28;20440;-79
2023/01/15 03:54:35;;;;;;;12.77;2.40;;;;;;;;;;5105437;28;20417;-80
2023/01/15 03:57:05;;;;;;;12.13;2.40;;;;;;;;;;5074924;28;20417;-80
2023/01/15 03:59:39;;;;;;;11.00;2.40;;;;;;;;;;5085584;28;20410;-80
2023/01/15 04:02:08;;;;;;;16.13;3.13;;;;;;;;;;5080652;28;20414;-80
2023/01/15 04:04:39;;;;;;;12.95;2.83;;;;;;;;;;5091596;28;20409;-80
2023/01/15 04:07:05;;;;;;;15.75;2.65;;;;;;;;;;5074878;28;20450;-80
2023/01/15 04:09:31;;;;;;;15.93;2.90;;;;;;;;;;5060196;28;20915;-79
2023/01/15 04:11:59;;;;;;;15.60;3.33;;;;;;;;;;5074433;28;20489;-80
2023/01/15 04:14:26;;;;;;;15.80;2.60;;;;;;;;;;5089321;28;20414;-80
2023/01/15 04:16:52;;;;;;;17.83;2.70;;;;;;;;;;5106993;27;20408;-80
2023/01/15 04:19:19;;;;;;;13.35;3.22;;;;;;;;;;5074579;28;20418;-80
2023/01/15 04:21:45;;;;;;;15.07;2.90;;;;;;;;;;5053868;28;20410;-80
2023/01/15 04:24:11;;;;;;;18.33;3.05;;;;;;;;;;5074912;28;20421;-80
2023/01/15 04:26:37;;;;;;;13.45;2.72;;;;;;;;;;5074401;28;20410;-80
2023/01/15 04:29:05;;;;;;;14.98;2.80;;;;;;;;;;5090245;28;20471;-80
2023/01/15 04:31:35;;;;;;;13.10;2.90;;;;;;;;;;5074861;28;20429;-79
2023/01/15 04:34:01;;;;;;;14.90;2.83;;;;;;;;;;5074569;28;20774;-78
2023/01/15 04:36:34;;;;;;;14.40;2.90;;;;;;;;;;5071691;28;20465;-78
2023/01/15 04:39:00;;;;;;;13.50;3.00;;;;;;;;;;5081109;28;20547;-78
2023/01/15 04:44:11;;;;;;;12.50;2.50;;;;;;;;;;5089883;28;20451;-78
2023/01/15 04:46:39;;;;;;;14.93;3.05;;;;;;;;;;5091605;28;20885;-77
2023/01/15 04:49:06;;;;;;;17.38;2.80;;;;;;;;;;5083154;28;20420;-79
2023/01/15 04:51:32;;;;;;;13.25;2.70;;;;;;;;;;5087532;28;20462;-78
2023/01/15 04:54:01;;;;;;;18.60;2.58;;;;;;;;;;5090290;28;20402;-78
2023/01/15 04:56:27;;;;;;;12.50;2.50;;;;;;;;;;5069652;28;20416;-78
2023/01/15 04:58:53;;;;;;;13.25;2.60;;;;;;;;;;5081756;28;20419;-78
2023/01/15 05:01:19;;;;;;;12.10;2.40;;;;;;;;;;5073577;28;20523;-77
2023/01/15 05:03:46;;;;;;;9.93;2.70;;;;;;;;;;5073827;28;20405;-78
2023/01/15 05:06:13;;;;;;;17.80;3.30;;;;;;;;;;5075097;28;20414;-78
2023/01/15 05:08:39;;;;;;;15.52;2.70;;;;;;;;;;5085513;28;20431;-78
2023/01/15 05:11:06;;;;;;;11.30;2.33;;;;;;;;;;5070437;28;20417;-78
2023/01/15 05:13:36;;;;;;;12.35;2.90;;;;;;;;;;5088545;28;20436;-78
2023/01/15 05:16:11;;;;;;;15.18;3.05;;;;;;;;;;5076752;28;20779;-78
2023/01/15 05:18:47;;;;;;;15.07;2.83;;;;;;;;;;5086367;28;21126;-77
2023/01/15 05:21:17;;;;;;;14.98;3.10;;;;;;;;;;5086469;28;20413;-78
2023/01/15 05:23:46;;;;;;;17.63;2.83;;;;;;;;;;5089309;28;20410;-78
2023/01/15 05:26:16;;;;;;;14.10;2.50;;;;;;;;;;5069394;28;20825;-80
2023/01/15 05:28:42;;;;;;;12.60;2.35;;;;;;;;;;5079858;28;20417;-80
2023/01/15 05:31:14;;;;;;;13.77;2.70;;;;;;;;;;5073816;28;20481;-80
2023/01/15 05:33:43;;;;;;;12.73;2.22;;;;;;;;;;5088883;28;20440;-80
2023/01/15 05:36:11;;;;;;;14.68;3.08;;;;;;;;;;5083717;28;20406;-80
2023/01/15 05:38:37;;;;;;;10.55;2.08;;;;;;;;;;5083113;28;20437;-80
2023/01/15 05:44:04;;;;;;;13.43;2.70;;;;;;;;;;5065590;28;20413;-80
2023/01/15 05:46:31;;;;;;;12.75;2.53;;;;;;;;;;5048570;28;20469;-80
2023/01/15 05:49:01;;;;;;;10.73;2.20;;;;;;;;;;5035575;28;20511;-81
2023/01/15 05:51:27;;;;;;;12.80;2.80;;;;;;;;;;5031772;28;20937;-81
2023/01/15 05:53:53;;;;;;;13.48;2.50;;;;;;;;;;5056353;28;20438;-80
2023/01/15 05:56:22;;;;;;;9.20;2.13;;;;;;;;;;5045535;28;20427;-80
2023/01/15 05:59:00;;;;;;;10.32;2.33;;;;;;;;;;5051914;28;20424;-80
2023/01/15 06:01:35;;;;;;;12.00;2.05;;;;;;;;;;5075596;28;20410;-80
2023/01/15 06:04:08;;;;;;;11.77;2.30;;;;;;;;;;5068706;28;21054;-80
2023/01/15 06:06:45;;;;;;;9.80;2.33;;;;;;;;;;5059804;28;20421;-80
2023/01/15 06:09:58;;;;;;;11.75;2.03;;;;;;;;;;4977509;28;20414;-81
2023/01/15 06:15:54;;;;;;;12.23;2.28;;;;;;;;;;5018931;28;20458;-80
2023/01/15 06:18:57;;;;;;;8.13;2.00;;;;;;;;;;4956664;28;20564;-80
2023/01/15 06:21:32;;;;;;;12.23;2.20;;;;;;;;;;4982283;28;20776;-80
2023/01/15 06:23:58;;;;;;;12.32;2.33;;;;;;;;;;5090233;28;20932;-80
2023/01/15 06:26:24;;;;;;;9.07;2.15;;;;;;;;;;5089675;28;20409;-80
2023/01/15 06:28:56;;;;;;;10.70;2.15;;;;;;;;;;5076294;28;20413;-80
2023/01/15 06:31:28;;;;;;;13.35;2.42;;;;;;;;;;5087194;28;20949;-81
2023/01/15 06:33:54;;;;;;;14.63;2.67;;;;;;;;;;5083942;28;20431;-81
2023/01/15 06:36:27;;;;;;;14.25;2.72;;;;;;;;;;5092224;28;20450;-81
2023/01/15 06:38:56;;;;;;;12.50;2.30;;;;;;;;;;5068072;28;20425;-81
2023/01/15 06:47:20;;;;;;;12.15;2.45;;;;;;;;;;5075491;28;20459;-81
2023/01/15 06:49:49;;;;;;;12.88;2.80;;;;;;;;;;5031294;28;20405;-80
2023/01/15 06:52:28;;;;;;;10.52;2.42;;;;;;;;;;5034011;28;20421;-80
2023/01/15 06:54:54;;;;;;;12.93;2.25;;;;;;;;;;5036797;28;20405;-80
2023/01/15 06:57:23;;;;;;;10.33;2.33;;;;;;;;;;5035727;28;20428;-80
2023/01/15 07:02:52;;;;;;;14.55;2.53;;;;;;;;;;5052203;28;20926;-81
2023/01/15 07:05:18;;;;;;;9.52;2.25;;;;;;;;;;5053202;28;20401;-81
2023/01/15 07:07:44;;;;;;;10.80;2.15;;;;;;;;;;5035243;28;20984;-81
2023/01/15 07:10:13;;;;;;;11.07;2.47;;;;;;;;;;5035646;28;20503;-81
2023/01/15 07:12:39;;;;;;;8.20;2.13;;;;;;;;;;5043928;28;20570;-81
2023/01/15 07:15:27;;;;;;;10.52;1.90;;;;;;;;;;5036330;28;20428;-81
2023/01/15 07:18:18;;;;;;;;;;;;;;;;;;;;;
2023/01/15 07:21:20;;;;;;;12.82;2.00;;;;;;;;;;5033289;28;20402;-81
2023/01/15 07:24:09;;;;;;;11.65;2.10;;;;;;;;;;5059408;28;20913;-82
2023/01/15 07:29:26;;;;;;;8.30;1.98;;;;;;;;;;5052059;28;20414;-82
2023/01/15 07:32:21;;;;;;;12.00;2.50;;;;;;;;;;5051515;28;20421;-81
2023/01/15 07:38:32;;;;;;;11.43;2.13;;;;;;;;;;5047657;28;20424;-82
2023/01/15 07:50:16;;;;;;;8.70;2.22;;;;;;;;;;5016437;28;20788;-83
2023/01/15 07:53:08;;;;;;;10.73;2.45;;;;;;;;;;5008583;28;20405;-83
2023/01/15 07:55:47;;;;;;;11.32;2.85;;;;;;;;;;5006434;28;20411;-83
2023/01/15 07:58:16;;;;;;;11.02;3.10;;;;;;;;;;5039197;28;20425;-82
2023/01/15 08:04:17;;;;;;;10.15;2.33;;;;;;;;;;5049771;28;20439;-82
2023/01/15 08:06:51;;;;;;;11.48;2.30;;;;;;;;;;5000844;28;20487;-83
2023/01/15 08:09:36;;;;;;;7.93;2.40;;;;;;;;;;5020615;28;20422;-82
2023/01/15 08:15:18;;;;;;;10.88;2.42;;;;;;;;;;5032289;28;20423;-82
2023/01/15 08:17:53;;;;;;;9.65;2.10;;;;;;;;;;5031010;28;20432;-82
2023/01/15 08:20:20;;;;;;;12.90;2.75;;;;;;;;;;5072652;28;20408;-83
2023/01/15 08:22:55;;;;;;;12.02;2.33;;;;;;;;;;5073332;28;20403;-81
2023/01/15 08:25:39;;;;;;;9.23;2.20;;;;;;;;;;5083884;28;20778;-82
2023/01/15 08:31:14;;;;;;;8.88;2.00;;;;;;;;;;5057882;28;20918;-83
2023/01/15 08:36:45;;;;;;;9.02;2.10;;;;;;;;;;5033229;28;20526;-84
2023/01/15 08:39:23;;;;;;;10.60;2.33;;;;;;;;;;5011681;28;20429;-84
2023/01/15 08:41:50;;;;;;;11.88;2.58;;;;;;;;;;4998028;28;20517;-84
2023/01/15 08:44:16;;;;;;;10.82;2.40;;;;;;;;;;5030863;28;20834;-83
2023/01/15 08:46:42;;;;;;;11.57;2.23;;;;;;;;;;5033929;28;20451;-82
2023/01/15 08:49:11;;;;;;;8.98;2.10;;;;;;;;;;5110726;27;20446;-83
2023/01/15 08:51:53;;;;;;;10.60;2.20;;;;;;;;;;5073255;28;20418;-84
2023/01/15 08:54:28;;;;;;;9.30;2.30;;;;;;;;;;5104356;28;20471;-84
2023/01/15 08:56:59;;;;;;;12.43;2.50;;;;;;;;;;5070841;28;20396;-84
2023/01/15 08:59:50;;;;;;;11.93;2.45;;;;;;;;;;5091165;28;20818;-84
2023/01/15 09:02:19;;;;;;;14.57;2.57;;;;;;;;;;5087175;28;20822;-84
2023/01/15 09:04:45;;;;;;;10.32;2.50;;;;;;;;;;5082234;28;20415;-84
2023/01/15 09:07:11;;;;;;;11.68;2.50;;;;;;;;;;5101983;28;20414;-85
2023/01/15 09:09:38;;;;;;;12.35;2.33;;;;;;;;;;5091071;28;20429;-84
2023/01/15 09:12:08;;;;;;;9.35;2.25;;;;;;;;;;5081327;28;20414;-85
2023/01/15 09:14:42;;;;;;;7.95;2.10;;;;;;;;;;5069913;28;20494;-83
2023/01/15 09:17:11;;;;;;;12.38;2.33;;;;;;;;;;5111862;27;20417;-83
2023/01/15 09:19:42;;;;;;;10.85;2.05;;;;;;;;;;5071937;28;20418;-82
2023/01/15 09:22:08;;;;;;;9.77;1.88;;;;;;;;;;5104886;28;20827;-82
2023/01/15 09:24:36;;;;;;;7.07;2.03;;;;;;;;;;5086872;28;20444;-82
2023/01/15 09:27:05;;;;;;;12.48;2.28;;;;;;;;;;5081234;28;20487;-82
2023/01/15 09:29:34;;;;;;;10.18;2.30;;;;;;;;;;5074821;28;21108;-84
2023/01/15 09:32:03;;;;;;;12.80;2.30;;;;;;;;;;5077128;28;20413;-82
2023/01/15 09:37:27;;;;;;;12.75;3.00;;;;;;;;;;5068655;28;20947;-83
2023/01/15 09:39:53;;;;;;;10.05;2.00;;;;;;;;;;5085569;28;20851;-83
2023/01/15 09:42:31;;;;;;;15.38;2.85;;;;;;;;;;5070172;28;20414;-83
2023/01/15 09:45:33;;;;;;;14.60;2.83;;;5.90;99.90;;;;;;5075999;28;20429;-83
2023/01/15 09:48:19;;;;;;;11.10;2.50;;;;;;;;;;5087463;28;20501;-83
2023/01/15 09:51:00;;;;;;;12.25;2.50;;;;;;;;;;5073452;28;20496;-84
2023/01/15 09:53:37;;;;;;;11.13;2.47;;;;;;;;;;5074171;28;20425;-83
2023/01/15 09:56:07;;;;;;;11.20;2.60;;;;;;;;;;5068485;28;20409;-83
2023/01/15 09:58:34;;;;;;;12.50;2.20;;;;;;;;;;5093023;28;20433;-83
2023/01/15 10:01:13;;;;;;;9.75;2.42;;;;;;;;;;5085127;28;20467;-85
2023/01/15 10:03:45;;;;;;;13.88;2.60;;;;;;;;;;5073868;28;20913;-83
2023/01/15 10:06:14;;;;;;;10.20;2.67;;;;;;;;;;5075981;28;20458;-83
2023/01/15 10:08:41;;;;;;;11.02;2.33;;;;;;;;;;5093753;28;20471;-82
2023/01/15 10:12:33;;;;;;;11.13;2.70;;;;;;;;;;5077517;28;20897;-82
2023/01/15 10:14:15;;;;;;;11.00;2.28;;;;;;;;;;5083295;28;21094;-87
2023/01/15 10:16:41;;;;;;;9.95;1.85;;;;;;;;;;5084434;28;20413;-86
2023/01/15 10:19:08;;;;;;;7.85;2.00;;;;;;;;;;5094402;28;20424;-79
2023/01/15 10:21:37;;;;;;;10.80;2.30;;;;;;;;;;5089149;28;20425;-79
2023/01/15 10:24:04;;;;;;;13.45;2.70;;;;;;;;;;5075368;28;20484;-79
2023/01/15 10:26:33;;;;;;;10.45;2.10;;;;;;;;;;5090971;28;20769;-80
2023/01/15 10:29:02;;;;;;;9.50;2.10;;;;;;;;;;5093033;28;20409;-79
2023/01/15 10:31:31;;;;;;;10.45;2.20;;;;;;;;;;5083313;28;21033;-87
2023/01/15 10:34:06;;;;;;;11.27;2.25;;;;;;;;;;5086365;28;20420;-90
2023/01/15 10:36:38;;;;;;;11.43;2.22;;;;;;;;;;5094931;28;20406;-89
2023/01/15 10:39:23;;;;;;;12.82;2.30;;;;;;;;;;5095269;28;20921;-87
2023/01/15 10:41:49;;;;;;;13.07;2.40;;;;;;;;;;5101076;28;20421;-87
2023/01/15 10:44:24;;;;;;;9.97;2.20;;;;;;;;;;5087095;28;21011;-89
2023/01/15 10:46:53;;;;;;;9.60;2.47;;;;;;;;;;5085480;28;20459;-87
2023/01/15 10:49:19;;;;;;;11.88;2.05;;;;;;;;;;5088804;28;20408;-87
2023/01/15 10:51:47;;;;;;;11.82;2.20;;;;;;;;;;5090691;28;20417;-87
2023/01/15 10:54:21;;;;;;;11.30;2.30;;;;;;;;;;5093199;28;20430;-87
2023/01/15 10:57:10;;;;;;;10.38;2.30;;;;;;;;;;5092257;28;20964;-85
2023/01/15 10:59:46;;;;;;;14.48;2.55;;;;;;;;;;5076300;28;20508;-85
2023/01/15 11:02:15;;;;;;;11.93;2.60;;;;;;;;;;5087417;28;20430;-84
2023/01/15 11:04:41;;;;;;;8.60;2.45;;;;;;;;;;5108984;28;20510;-85
2023/01/15 11:07:09;;;;;;;16.55;2.92;;;;;;;;;;5109768;28;20413;-85
2023/01/15 11:09:36;;;;;;;12.50;2.78;;;;;;;;;;5075648;28;20416;-83
2023/01/15 11:20:17;;;;;;;13.88;2.80;;;;;;;;;;5083885;28;20497;-85
2023/01/15 11:22:43;;;;;;;9.27;2.05;;;;;;;;;;5090246;28;20920;-85
2023/01/15 11:25:13;;;;;;;11.27;3.00;;;;;;;;;;5090770;28;20913;-85
2023/01/15 11:27:40;;;;;;;12.88;2.60;;;;;;;;;;5085047;28;20898;-84
2023/01/15 11:30:07;;;;;;;12.55;2.63;;;;;;;;;;5092888;28;20398;-84
2023/01/15 11:32:42;;;;;;;10.82;2.70;;;;;;;;;;5088212;28;20769;-85
2023/01/15 11:35:08;;;;;;;17.52;2.92;;;;;;;;;;5073213;28;20988;-84
2023/01/15 11:37:34;;;;;;;10.48;2.70;;;;;;;;;;5091251;28;20421;-84
2023/01/15 11:40:07;;;;;;;11.93;2.30;;;;;;;;;;5091939;28;21020;-85
2023/01/15 11:51:14;;;;;;;14.33;2.80;;;;;;;;;;5090882;28;20771;-85
2023/01/15 11:53:47;;;;;;;10.13;2.83;;;;;;;;;;5074444;28;20430;-84
2023/01/15 11:56:16;;;;;;;14.85;2.80;;;;;;;;;;5092119;28;20405;-85
2023/01/15 11:58:53;;;;;;;14.80;2.83;;;;;;;;;;5074324;28;20423;-85
2023/01/15 12:01:33;;;;;;;14.60;3.20;;;;;;;;;;5100352;28;20419;-84
2023/01/15 12:04:00;;;;;;;9.13;2.63;;;;;;;;;;5073251;28;20404;-84
2023/01/15 12:06:27;;;;;;;15.15;3.05;;;;;;;;;;5082295;28;20470;-85
2023/01/15 12:09:23;;;;;;;16.27;2.60;;;;;;;;;;5082070;28;20427;-80
2023/01/15 12:12:03;;;;;;;12.93;2.65;;;;;;;;;;5096644;27;20430;-79
2023/01/15 12:14:33;;;;;;;14.88;3.17;;;;;;;;;;5086354;28;20426;-79
2023/01/15 12:17:06;;;;;;;12.88;2.78;;;;;;;;;;5083794;28;20419;-80
2023/01/15 12:19:45;;;;;;;14.45;3.03;;;;;;;;;;5086028;28;20457;-79
2023/01/15 12:22:17;;;;;;;15.68;3.03;;;;;;;;;;5126182;27;20418;-79
2023/01/15 12:25:30;;;;;;;13.63;2.90;;;7.80;99.90;;;;;;5088690;28;20444;-79
2023/01/15 12:27:59;;;;;;;15.27;2.60;;;;;;;;;;5099893;28;20427;-79
2023/01/15 12:30:28;;;;;;;13.02;2.53;;;;;;;;;;5099558;28;20430;-79
2023/01/15 12:33:01;;;;;;;15.87;2.97;;;;;;;;;;5076815;28;20447;-78
2023/01/15 12:35:31;;;;;;;12.75;2.50;;;;;;;;;;5119451;27;20925;-78
2023/01/15 12:38:18;;;;;;;14.80;2.90;;;;;;;;;;5082377;28;20810;-78
2023/01/15 12:41:22;;;;;;;13.68;3.00;;;7.00;99.90;;;;;;5084099;28;20418;-80
2023/01/15 12:46:38;;;;;;;16.05;3.03;;;;;;;;;;5078315;28;20438;-79
2023/01/15 12:49:23;;;;;;;14.68;2.97;;;;;;;;;;5084531;28;20787;-78
2023/01/15 12:52:03;;;;;;;14.18;3.03;;;;;;;;;;5082682;28;20923;-78
2023/01/15 12:54:33;;;;;;;15.13;3.13;;;;;;;;;;5102639;28;20560;-77
2023/01/15 12:57:13;;;;;;;15.35;2.95;;;;;;;;;;5086502;28;20422;-78
2023/01/15 12:59:52;;;;;;;15.98;2.50;;;;;;;;;;5076000;28;20422;-81
2023/01/15 13:02:33;;;;;;;13.02;2.35;;;;;;;;;;5067502;28;20517;-80
2023/01/15 13:05:13;;;;;;;19.42;3.55;;;;;;;;;;5079293;28;20413;-80
2023/01/15 13:07:41;;;;;;;12.77;2.65;;;;;;;;;;5071627;28;20424;-78
2023/01/15 13:10:17;;;;;;;8.63;2.15;;;;;;;;;;5085400;28;20420;-78
2023/01/15 13:12:43;;;;;;;9.10;1.90;;;;;;;;;;5071759;28;20502;-79
2023/01/15 13:15:13;;;;;;;7.25;1.63;;;;;;;;;;5082581;28;20438;-79
2023/01/15 13:17:40;;;;;;;7.07;1.63;;;;;;;;;;5104295;27;20424;-78
2023/01/15 13:20:14;;;;;;;7.00;1.50;;;;;;;;;;5082971;28;21005;-79
2023/01/15 13:22:44;;;;;;;0.10;0.10;;;;;;;;;;5071344;28;20428;-78
2023/01/15 13:25:26;;;;;;;0.13;0.13;;;;;;;;;;5080009;28;20827;-78
2023/01/15 13:28:09;;;;;;;0.20;0.20;;;;;;;;;;5078208;28;20423;-79
2023/01/15 13:30:41;;;;;;;0.10;0.10;;;;;;;;;;5077725;28;20438;-79
2023/01/15 13:33:26;;;;;;;1.05;0.57;;;;;;;;;;5085874;28;20414;-78
2023/01/15 13:36:22;;;;;;;0.15;0.15;;;;;;;;;;5079035;28;20436;-78
2023/01/15 13:38:50;;;;;;;0.10;0.10;;;;;;;;;;5068310;28;20777;-77
2023/01/15 13:42:30;;;;;;;0.10;0.10;;;;;;;;;;5093984;28;21399;-78
2023/01/15 13:44:11;;;;;;;0.10;0.10;;;;;;;;;;5083327;28;20458;-77
2023/01/15 13:46:37;;;;;;;0.80;0.80;;;;;;;;;;5082283;28;20526;-77
2023/01/15 13:49:04;;;;;;;0.10;0.10;;;;;;;;;;5071887;28;20502;-78
2023/01/15 13:51:42;;;;;;;0.15;0.15;;;;;;;;;;5090497;28;20430;-78
2023/01/15 13:54:19;;;;;;;4.25;0.57;;;;;;;;;;5089768;28;20758;-78
2023/01/15 13:56:45;;;;;;;0.10;0.10;;;;;;;;;;5078837;28;20426;-78
2023/01/15 13:59:49;;;;;;;0.10;0.10;;;;;;;;;;5085385;28;20486;-78
2023/01/15 14:02:24;;;;;;;0.10;0.10;;;;;;;;;;5013275;28;20490;-78
2023/01/15 14:04:50;;;;;;;0.10;0.10;;;;;;;;;;5070657;28;20427;-78
2023/01/15 14:07:22;;;;;;;0.07;0.07;;;;;;;;;;5054670;28;20496;-77
2023/01/15 14:09:49;;;;;;;0.32;0.32;;;;;;;;;;5070078;28;20402;-77
2023/01/15 14:12:15;;;;;;;0.50;0.50;;;;;;;;;;5069669;28;21115;-78
2023/01/15 14:15:00;;;;;;;0.10;0.10;;;;;;;;;;5090558;28;20406;-78
2023/01/15 14:17:31;;;;;;;0.10;0.10;;;;;;;;;;5084396;28;20416;-78
2023/01/15 14:20:12;;;;;;;0.10;0.10;;;;;;;;;;5100572;28;20504;-77
2023/01/15 14:22:38;;;;;;;0.10;0.10;;;;;;;;;;5085164;28;20866;-78
2023/01/15 14:25:29;;;;;;;5.00;1.00;;;;;;;;;;5090203;28;20467;-77
2023/01/15 14:27:58;;;;;;;0.30;0.30;;;;;;;;;;5082860;28;20432;-78
2023/01/15 14:30:36;;;;;;;0.30;0.30;;;;;;;;;;5103159;28;20424;-78
2023/01/15 14:33:02;;;;;;;0.17;0.17;;;;;;;;;;5085540;28;20418;-79
2023/01/15 14:35:34;;;;;;;0.50;0.30;;;;;;;;;;5079328;28;20428;-79
2023/01/15 14:38:04;;;;;;;0.20;0.20;;;;;;;;;;5072725;28;20425;-79
2023/01/15 14:40:31;;;;;;;0.70;0.70;;;;;;;;;;5105069;28;20426;-78
2023/01/15 14:43:00;;;;;;;0.20;0.20;;;;;;;;;;5092931;28;20418;-78
2023/01/15 14:45:32;;;;;;;0.20;0.20;;;;;;;;;;5087809;28;20424;-78
2023/01/15 14:47:59;;;;;;;0.17;0.17;;;;;;;;;;5121857;27;20776;-77
2023/01/15 14:50:26;;;;;;;0.10;0.10;;;;;;;;;;5073565;28;20523;-77
2023/01/15 14:52:54;;;;;;;0.60;0.60;;;;;;;;;;5078106;28;20557;-78
2023/01/15 14:55:20;;;;;;;0.10;0.10;;;;;;;;;;5079777;28;20425;-79
2023/01/15 14:57:58;;;;;;;0.20;0.20;;;;;;;;;;5066663;28;20927;-78
2023/01/15 15:00:30;;;;;;;0.10;0.10;;;;;;;;;;5076181;28;20932;-82
2023/01/15 15:02:57;;;;;;;0.10;0.10;;;;;;;;;;5091795;28;20525;-82
2023/01/15 15:05:24;;;;;;;0.10;0.10;;;;;;;;;;5083671;28;20417;-83
2023/01/15 15:07:54;;;;;;;0.40;0.40;;;;;;;;;;5081605;28;20425;-81
2023/01/15 15:10:25;;;;;;;0.10;0.10;;;;;;;;;;5092477;28;20757;-82
2023/01/15 15:13:03;;;;;;;0.70;0.70;;;;;;;;;;5071586;28;20740;-82
2023/01/15 15:15:45;;;;;;;0.20;0.20;;;;;;;;;;5105458;27;20865;-82
2023/01/15 15:18:11;;;;;;;0.60;0.40;;;;;;;;;;5071408;28;20426;-82
2023/01/15 15:20:49;;;;;;;0.10;0.10;;;;;;;;;;5075111;28;20550;-82
2023/01/15 15:23:18;;;;;;;0.13;0.13;;;;;;;;;;5084144;28;20500;-82
2023/01/15 15:25:47;;;;;;;3.80;0.70;;;;;;;;;;5085299;28;20423;-82
2023/01/15 15:28:13;;;;;;;0.60;0.60;;;;;;;;;;5075869;28;20463;-82
2023/01/15 15:30:41;;;;;;;0.10;0.10;;;;;;;;;;5091396;28;20445;-82
2023/01/15 15:33:12;;;;;;;0.10;0.10;;;;;;;;;;5073311;28;20450;-82
2023/01/15 15:35:39;;;;;;;0.30;0.30;;;;;;;;;;5077848;28;20429;-81
2023/01/15 15:38:05;;;;;;;0.68;0.40;;;;;;;;;;5071510;28;20418;-82
2023/01/15 15:40:33;;;;;;;0.28;0.28;;;;;;;;;;5072283;28;20420;-82
2023/01/15 15:48:43;;;;;;;0.30;0.30;;;;;;;;;;5116732;27;20418;-83
2023/01/15 15:51:29;;;;;;;0.20;0.20;;;;;;;;;;5080377;28;20523;-82
2023/01/15 15:54:14;;;;;;;0.15;0.15;;;;;;;;;;5084722;28;20551;-83
2023/01/15 15:56:46;;;;;;;0.22;0.22;;;;;;;;;;5081796;28;20423;-82
2023/01/15 15:59:39;;;;;;;0.10;0.10;;;;;;;;;;5065987;28;20429;-82
2023/01/15 16:02:20;;;;;;;0.10;0.10;;;;;;;;;;5086319;28;20473;-82
2023/01/15 16:04:47;;;;;;;0.20;0.20;;;;;;;;;;5078774;28;20446;-83
2023/01/15 16:07:25;;;;;;;0.10;0.10;;;;;;;;;;5088204;28;20428;-81
2023/01/15 16:09:53;;;;;;;0.17;0.17;;;;;;;;;;5068979;28;20514;-82
2023/01/15 16:12:19;;;;;;;0.20;0.20;;;;;;;;;;5067553;28;20470;-81
2023/01/15 16:14:46;;;;;;;0.20;0.20;;;;;;;;;;5090762;28;20422;-82
2023/01/15 16:17:13;;;;;;;0.10;0.10;;;;;;;;;;5084798;28;20492;-82
2023/01/15 16:19:39;;;;;;;0.20;0.20;;;;;;;;;;5086733;28;20519;-81
2023/01/15 16:22:06;;;;;;;0.40;0.40;;;;;;;;;;5070312;28;20486;-83